createdAt,value
2023-01-15T00:02:10.328Z,86.82
2023-01-15T00:04:38.893Z,86.68
2023-01-15T00:07:07.685Z,87.02
2023-01-15T00:09:36.201Z,86.76
2023-01-15T00:12:05.208Z,86.41
2023-01-15T00:14:33.786Z,85.93
2023-01-15T00:17:02.264Z,86.15
2023-01-15T00:19:32.500Z,85.63
2023-01-15T00:22:00.978Z,86.23
2023-01-15T00:24:46.844Z,87.19
2023-01-15T00:27:41.501Z,87.94
2023-01-15T00:30:13.008Z,87.84
2023-01-15T00:32:42.118Z,89.17
2023-01-15T00:35:14.833Z,88.97
2023-01-15T00:37:46.420Z,89.29
2023-01-15T00:40:16.397Z,90.19
2023-01-15T00:42:50.384Z,91.28
2023-01-15T00:45:23.328Z,91.41
2023-01-15T00:47:52.142Z,92.40
2023-01-15T00:50:22.435Z,93.24
2023-01-15T00:52:50.881Z,93.43
2023-01-15T00:55:19.458Z,94.00
2023-01-15T00:57:48.292Z,94.57
2023-01-15T01:00:17.217Z,95.06
2023-01-15T01:02:49.406Z,95.31
2023-01-15T01:05:18.080Z,95.90
2023-01-15T01:07:47.996Z,96.47
2023-01-15T01:10:17.098Z,96.99
2023-01-15T01:12:45.864Z,97.16
2023-01-15T01:15:14.656Z,97.85
2023-01-15T01:17:43.191Z,98.23
2023-01-15T01:20:14.643Z,97.99
2023-01-15T01:22:43.946Z,98.63
2023-01-15T01:25:13.975Z,98.85
2023-01-15T01:27:42.862Z,99.78
2023-01-15T01:30:13.096Z,100.00
2023-01-15T01:32:42.107Z,99.92
2023-01-15T01:35:11.238Z,99.77
2023-01-15T01:37:39.832Z,99.81
2023-01-15T01:40:09.113Z,100.00
2023-01-15T01:42:39.073Z,100.00
2023-01-15T01:45:20.414Z,100.00
2023-01-15T01:47:49.440Z,100.00
2023-01-15T01:50:18.312Z,100.00
2023-01-15T01:52:51.232Z,100.00
2023-01-15T01:55:23.339Z,100.00
2023-01-15T01:57:56.334Z,100.00
2023-01-15T02:00:25.526Z,100.00
2023-01-15T02:02:55.429Z,100.00
2023-01-15T02:05:30.534Z,100.00
2023-01-15T02:07:59.508Z,100.00
2023-01-15T02:10:28.479Z,100.00
2023-01-15T02:13:05.410Z,100.00
2023-01-15T02:15:38.273Z,100.00
2023-01-15T02:18:19.085Z,100.00
2023-01-15T02:20:52.305Z,100.00
2023-01-15T02:23:54.740Z,100.00
2023-01-15T02:26:59.052Z,100.00
2023-01-15T02:29:33.762Z,100.00
2023-01-15T02:32:06.424Z,100.00
2023-01-15T02:34:38.356Z,100.00
2023-01-15T02:37:11.607Z,100.00
2023-01-15T02:39:44.900Z,100.00
2023-01-15T02:42:15.687Z,100.00
2023-01-15T02:44:49.083Z,100.00
2023-01-15T02:47:20.549Z,100.00
2023-01-15T02:49:51.536Z,100.00
2023-01-15T02:52:25.701Z,100.00
2023-01-15T02:55:00.164Z,100.00
2023-01-15T02:57:34.644Z,100.00
2023-01-15T03:00:08.260Z,100.00
2023-01-15T03:02:41.557Z,100.00
2023-01-15T03:05:12.906Z,100.00
2023-01-15T03:07:47.828Z,100.00
2023-01-15T03:10:17.111Z,100.00
2023-01-15T03:13:03.878Z,100.00
2023-01-15T03:15:59.904Z,100.00
2023-01-15T03:18:31.744Z,100.00
2023-01-15T03:21:06.332Z,100.00
2023-01-15T03:23:39.043Z,100.00
2023-01-15T03:26:08.176Z,100.00
2023-01-15T03:28:41.470Z,100.00
2023-01-15T03:31:10.023Z,100.00
2023-01-15T03:33:38.651Z,100.00
2023-01-15T03:36:08.111Z,100.00
2023-01-15T03:38:39.318Z,100.00
2023-01-15T03:41:17.231Z,100.00
2023-01-15T03:43:58.170Z,100.00
2023-01-15T03:46:42.006Z,100.00
2023-01-15T03:49:20.552Z,100.00
2023-01-15T03:52:01.289Z,100.00
2023-01-15T03:54:39.764Z,100.00
2023-01-15T03:57:14.281Z,100.00
2023-01-15T03:59:50.479Z,100.00
2023-01-15T04:02:22.253Z,100.00
2023-01-15T04:04:52.299Z,100.00
2023-01-15T04:07:21.474Z,100.00
2023-01-15T04:09:50.442Z,100.00
2023-01-15T04:12:18.858Z,100.00
2023-01-15T04:14:48.803Z,100.00
2023-01-15T04:17:17.280Z,100.00
2023-01-15T04:19:45.751Z,100.00
2023-01-15T04:22:14.204Z,100.00
2023-01-15T04:24:42.797Z,100.00
2023-01-15T04:27:11.292Z,100.00
2023-01-15T04:29:39.799Z,100.00
2023-01-15T04:32:09.790Z,100.00
2023-01-15T04:34:38.412Z,100.00
2023-01-15T04:37:06.950Z,100.00
2023-01-15T04:39:35.434Z,100.00
2023-01-15T04:42:20.973Z,100.00
2023-01-15T04:44:49.439Z,100.00
2023-01-15T04:47:19.337Z,100.00
2023-01-15T04:49:47.768Z,100.00
2023-01-15T04:52:16.816Z,100.00
2023-01-15T04:54:45.469Z,100.00
2023-01-15T04:57:14.065Z,100.00
2023-01-15T04:59:42.932Z,100.00
2023-01-15T05:02:11.487Z,100.00
2023-01-15T05:04:41.439Z,100.00
2023-01-15T05:07:11.063Z,100.00
2023-01-15T05:09:39.531Z,100.00
2023-01-15T05:12:08.188Z,100.00
2023-01-15T05:14:36.696Z,100.00
2023-01-15T05:17:05.234Z,100.00
2023-01-15T05:19:33.734Z,100.00
2023-01-15T05:22:03.605Z,100.00
2023-01-15T05:24:32.016Z,100.00
2023-01-15T05:27:00.836Z,100.00
2023-01-15T05:29:29.317Z,100.00
2023-01-15T05:31:57.843Z,100.00
2023-01-15T05:34:26.254Z,100.00
2023-01-15T05:36:54.705Z,100.00
2023-01-15T05:39:24.844Z,100.00
2023-01-15T05:41:54.270Z,100.00
2023-01-15T05:44:24.810Z,100.00
2023-01-15T05:46:54.929Z,100.00
2023-01-15T05:49:25.635Z,100.00
2023-01-15T05:51:55.977Z,100.00
2023-01-15T05:54:28.460Z,100.00
2023-01-15T05:56:57.675Z,100.00
2023-01-15T05:59:27.501Z,100.00
2023-01-15T06:01:57.102Z,100.00
2023-01-15T06:04:26.164Z,100.00
2023-01-15T06:06:55.937Z,100.00
2023-01-15T06:09:28.167Z,100.00
2023-01-15T06:11:57.281Z,100.00
2023-01-15T06:14:26.264Z,100.00
2023-01-15T06:16:54.856Z,100.00
2023-01-15T06:19:23.437Z,100.00
2023-01-15T06:21:52.026Z,100.00
2023-01-15T06:24:21.072Z,100.00
2023-01-15T06:26:50.984Z,100.00
2023-01-15T06:29:20.716Z,100.00
2023-01-15T06:31:49.713Z,100.00
2023-01-15T06:34:18.781Z,100.00
2023-01-15T06:36:47.255Z,100.00
2023-01-15T06:39:16.589Z,100.00
2023-01-15T06:42:02.137Z,100.00
2023-01-15T06:44:49.256Z,100.00
2023-01-15T06:47:24.086Z,100.00
2023-01-15T06:49:55.455Z,100.00
2023-01-15T06:52:24.441Z,100.00
2023-01-15T06:54:53.518Z,100.00
2023-01-15T06:57:22.627Z,100.00
2023-01-15T06:59:52.997Z,100.00
2023-01-15T07:02:22.141Z,100.00
2023-01-15T07:04:50.951Z,100.00
2023-01-15T07:07:20.758Z,100.00
2023-01-15T07:09:49.450Z,100.00
2023-01-15T07:12:18.776Z,100.00
2023-01-15T07:14:47.452Z,100.00
2023-01-15T07:17:17.595Z,100.00
2023-01-15T07:19:47.797Z,100.00
2023-01-15T07:22:16.505Z,100.00
2023-01-15T07:24:44.997Z,100.00
2023-01-15T07:27:13.487Z,100.00
2023-01-15T07:29:41.982Z,100.00
2023-01-15T07:32:11.257Z,100.00
2023-01-15T07:34:41.382Z,100.00
2023-01-15T07:37:10.069Z,100.00
2023-01-15T07:39:38.588Z,100.00
2023-01-15T07:42:24.247Z,100.00
2023-01-15T07:45:10.014Z,100.00
2023-01-15T07:47:55.894Z,100.00
2023-01-15T07:50:26.543Z,100.00
2023-01-15T07:52:55.825Z,100.00
2023-01-15T07:55:25.699Z,100.00
2023-01-15T07:57:54.868Z,100.00
2023-01-15T08:00:25.729Z,100.00
2023-01-15T08:02:54.186Z,100.00
2023-01-15T08:05:23.081Z,100.00
2023-01-15T08:07:53.103Z,100.00
2023-01-15T08:10:21.688Z,100.00
2023-01-15T08:13:09.132Z,100.00
2023-01-15T08:15:44.141Z,100.00
2023-01-15T08:18:13.208Z,100.00
2023-01-15T08:20:41.977Z,100.00
2023-01-15T08:23:11.967Z,100.00
2023-01-15T08:25:40.466Z,100.00
2023-01-15T08:28:14.818Z,100.00
2023-01-15T08:30:43.348Z,100.00
2023-01-15T08:33:12.364Z,100.00
2023-01-15T08:35:40.846Z,100.00
2023-01-15T08:38:09.541Z,100.00
2023-01-15T08:40:58.910Z,100.00
2023-01-15T08:43:27.937Z,100.00
2023-01-15T08:45:59.439Z,100.00
2023-01-15T08:48:30.393Z,100.00
2023-01-15T08:50:59.496Z,100.00
2023-01-15T08:53:29.919Z,100.00
2023-01-15T08:56:00.055Z,100.00
2023-01-15T08:58:30.156Z,100.00
2023-01-15T09:00:58.909Z,100.00
2023-01-15T09:03:27.996Z,100.00
2023-01-15T09:05:59.623Z,100.00
2023-01-15T09:08:28.301Z,100.00
2023-01-15T09:11:00.757Z,100.00
2023-01-15T09:13:30.400Z,100.00
2023-01-15T09:16:01.233Z,100.00
2023-01-15T09:18:31.772Z,100.00
2023-01-15T09:21:00.361Z,100.00
2023-01-15T09:23:28.966Z,100.00
2023-01-15T09:25:58.620Z,100.00
2023-01-15T09:28:29.510Z,100.00
2023-01-15T09:30:58.034Z,100.00
2023-01-15T09:33:26.698Z,100.00
2023-01-15T09:35:55.288Z,100.00
2023-01-15T09:38:24.021Z,100.00
2023-01-15T09:40:55.887Z,100.00
2023-01-15T09:43:50.059Z,100.00
2023-01-15T09:46:23.097Z,100.00
2023-01-15T09:49:02.027Z,100.00
2023-01-15T09:51:37.499Z,100.00
2023-01-15T09:54:19.166Z,100.00
2023-01-15T09:56:49.918Z,100.00
2023-01-15T09:59:34.817Z,100.00
2023-01-15T10:02:14.518Z,100.00
2023-01-15T10:04:47.410Z,100.00
2023-01-15T10:07:24.583Z,100.00
2023-01-15T10:10:01.145Z,100.00
2023-01-15T10:12:40.183Z,100.00
2023-01-15T10:15:19.937Z,100.00
2023-01-15T10:17:50.531Z,100.00
2023-01-15T10:20:29.115Z,100.00
2023-01-15T10:23:22.516Z,100.00
2023-01-15T10:25:53.291Z,100.00
2023-01-15T10:28:26.954Z,100.00
2023-01-15T10:30:58.409Z,100.00
2023-01-15T10:33:44.467Z,100.00
2023-01-15T10:36:18.450Z,100.00
2023-01-15T10:38:57.352Z,100.00
2023-01-15T10:41:39.699Z,100.00
2023-01-15T10:44:16.505Z,100.00
2023-01-15T10:46:54.858Z,100.00
2023-01-15T10:49:24.010Z,100.00
2023-01-15T10:51:57.544Z,100.00
2023-01-15T10:54:31.253Z,100.00
2023-01-15T10:57:10.349Z,100.00
2023-01-15T10:59:44.063Z,100.00
2023-01-15T11:02:33.103Z,100.00
2023-01-15T11:05:03.462Z,100.00
2023-01-15T11:07:50.088Z,100.00
2023-01-15T11:10:28.123Z,100.00
2023-01-15T11:13:16.159Z,100.00
2023-01-15T11:16:05.157Z,100.00
2023-01-15T11:18:55.349Z,100.00
2023-01-15T11:21:26.566Z,100.00
2023-01-15T11:23:57.921Z,100.00
2023-01-15T11:26:29.184Z,100.00
2023-01-15T11:29:00.111Z,100.00
2023-01-15T11:31:38.395Z,100.00
2023-01-15T11:34:21.629Z,100.00
2023-01-15T11:36:51.120Z,100.00
2023-01-15T11:39:28.027Z,100.00
2023-01-15T11:42:18.547Z,100.00
2023-01-15T11:45:12.608Z,100.00
2023-01-15T11:47:58.439Z,100.00
2023-01-15T11:50:46.623Z,100.00
2023-01-15T11:53:19.838Z,100.00
2023-01-15T11:56:02.279Z,100.00
2023-01-15T11:58:34.909Z,100.00
2023-01-15T12:01:03.661Z,100.00
2023-01-15T12:03:36.399Z,100.00
2023-01-15T12:06:10.444Z,100.00
2023-01-15T12:08:58.374Z,100.00
2023-01-15T12:11:51.768Z,100.00
2023-01-15T12:14:46.149Z,100.00
2023-01-15T12:17:31.308Z,100.00
2023-01-15T12:20:06.706Z,100.00
2023-01-15T12:22:52.633Z,100.00
2023-01-15T12:25:30.970Z,100.00
2023-01-15T12:28:04.114Z,100.00
2023-01-15T12:30:39.547Z,100.00
2023-01-15T12:33:20.427Z,100.00
2023-01-15T12:35:57.287Z,100.00
2023-01-15T12:38:37.668Z,100.00
2023-01-15T12:41:12.987Z,100.00
2023-01-15T12:44:02.009Z,100.00
2023-01-15T12:46:33.300Z,100.00
2023-01-15T12:49:08.992Z,100.00
2023-01-15T12:51:47.302Z,100.00
2023-01-15T12:54:23.302Z,100.00
2023-01-15T12:57:01.750Z,100.00
2023-01-15T12:59:38.715Z,100.00
2023-01-15T13:02:17.157Z,100.00
2023-01-15T13:04:50.803Z,100.00
2023-01-15T13:07:26.881Z,100.00
2023-01-15T13:10:07.238Z,100.00
2023-01-15T13:12:36.095Z,100.00
2023-01-15T13:15:05.423Z,100.00
2023-01-15T13:17:44.872Z,100.00
2023-01-15T13:20:38.182Z,100.00
2023-01-15T13:23:11.923Z,100.00
2023-01-15T13:25:56.966Z,100.00
2023-01-15T13:28:38.131Z,100.00
2023-01-15T13:31:18.929Z,100.00
2023-01-15T13:33:51.507Z,100.00
2023-01-15T13:36:26.373Z,100.00
2023-01-15T13:38:59.199Z,100.00
2023-01-15T13:41:49.743Z,100.00
2023-01-15T13:44:20.814Z,100.00
2023-01-15T13:47:00.712Z,100.00
2023-01-15T13:49:34.636Z,100.00
2023-01-15T13:52:04.817Z,100.00
2023-01-15T13:54:37.745Z,100.00
2023-01-15T13:57:12.233Z,100.00
2023-01-15T13:59:44.732Z,100.00
2023-01-15T14:02:32.166Z,100.00
2023-01-15T14:05:00.922Z,100.00
2023-01-15T14:07:35.589Z,100.00
2023-01-15T14:10:27.410Z,100.00
2023-01-15T14:13:19.034Z,100.00
2023-01-15T14:15:54.652Z,100.00
2023-01-15T14:18:39.413Z,100.00
2023-01-15T14:21:34.980Z,100.00
2023-01-15T14:24:24.969Z,100.00
2023-01-15T14:27:04.283Z,100.00
2023-01-15T14:30:11.656Z,100.00
2023-01-15T14:32:57.379Z,100.00
2023-01-15T14:35:27.990Z,100.00
2023-01-15T14:38:00.818Z,100.00
2023-01-15T14:40:32.317Z,100.00
2023-01-15T14:43:07.180Z,100.00
2023-01-15T14:45:40.236Z,100.00
2023-01-15T14:48:19.906Z,100.00
2023-01-15T14:50:50.249Z,100.00
2023-01-15T14:53:34.572Z,100.00
2023-01-15T14:56:13.224Z,100.00
2023-01-15T14:58:52.515Z,100.00
2023-01-15T15:01:34.259Z,100.00
2023-01-15T15:04:11.664Z,100.00
2023-01-15T15:06:50.072Z,100.00
2023-01-15T15:09:29.781Z,100.00
2023-01-15T15:12:20.878Z,100.00
2023-01-15T15:14:56.356Z,100.00
2023-01-15T15:17:36.788Z,100.00
2023-01-15T15:20:21.458Z,100.00
2023-01-15T15:22:54.681Z,100.00
2023-01-15T15:25:27.369Z,100.00
2023-01-15T15:28:06.920Z,100.00
2023-01-15T15:30:37.545Z,100.00
2023-01-15T15:33:07.996Z,100.00
2023-01-15T15:35:40.609Z,100.00
2023-01-15T15:38:09.065Z,100.00
2023-01-15T15:40:38.650Z,100.00
2023-01-15T15:43:32.573Z,100.00
2023-01-15T15:46:32.870Z,100.00
2023-01-15T15:49:02.948Z,100.00
2023-01-15T15:51:33.946Z,100.00
2023-01-15T15:54:07.098Z,100.00
2023-01-15T15:56:36.685Z,100.00
2023-01-15T15:59:05.813Z,100.00
2023-01-15T16:01:40.014Z,100.00
2023-01-15T16:04:17.991Z,100.00
2023-01-15T16:06:46.682Z,100.00
2023-01-15T16:09:15.108Z,100.00
2023-01-15T16:11:43.850Z,100.00
2023-01-15T16:14:16.065Z,100.00
2023-01-15T16:16:46.305Z,100.00
2023-01-15T16:19:22.838Z,100.00
2023-01-15T16:21:53.341Z,100.00
2023-01-15T16:24:27.691Z,100.00
2023-01-15T16:27:03.868Z,100.00
2023-01-15T16:29:34.966Z,100.00
2023-01-15T16:32:11.530Z,100.00
2023-01-15T16:34:42.010Z,100.00
2023-01-15T16:37:26.805Z,100.00
2023-01-15T16:39:55.493Z,100.00
2023-01-15T16:42:30.879Z,100.00
2023-01-15T16:45:02.520Z,100.00
2023-01-15T16:47:33.283Z,100.00
2023-01-15T16:50:31.588Z,100.00
2023-01-15T16:53:02.372Z,100.00
2023-01-15T16:55:39.114Z,100.00
2023-01-15T16:58:22.648Z,100.00
2023-01-15T17:00:55.916Z,100.00
2023-01-15T17:03:26.203Z,100.00
2023-01-15T17:06:00.227Z,100.00
2023-01-15T17:08:37.182Z,100.00
2023-01-15T17:11:07.921Z,100.00
2023-01-15T17:13:39.086Z,100.00
2023-01-15T17:16:17.868Z,100.00
2023-01-15T17:18:46.883Z,100.00
2023-01-15T17:21:27.891Z,100.00
2023-01-15T17:24:00.154Z,100.00
2023-01-15T17:26:29.002Z,100.00
2023-01-15T17:28:57.692Z,100.00
2023-01-15T17:31:28.746Z,100.00
2023-01-15T17:33:58.499Z,100.00
2023-01-15T17:36:29.436Z,100.00
2023-01-15T17:38:58.240Z,100.00
2023-01-15T17:41:27.613Z,100.00
2023-01-15T17:43:56.204Z,100.00
2023-01-15T17:46:24.769Z,100.00
2023-01-15T17:48:53.174Z,100.00
2023-01-15T17:51:22.097Z,100.00
2023-01-15T17:53:51.970Z,100.00
2023-01-15T17:56:38.176Z,100.00
2023-01-15T17:59:29.414Z,100.00
2023-01-15T18:02:15.353Z,100.00
2023-01-15T18:05:05.030Z,100.00
2023-01-15T18:07:37.756Z,100.00
2023-01-15T18:10:10.140Z,100.00
2023-01-15T18:12:38.799Z,100.00
2023-01-15T18:15:08.732Z,100.00
2023-01-15T18:17:37.396Z,100.00
2023-01-15T18:20:06.861Z,100.00
2023-01-15T18:22:35.714Z,100.00
2023-01-15T18:25:05.660Z,100.00
2023-01-15T18:27:38.313Z,100.00
2023-01-15T18:30:08.443Z,100.00
2023-01-15T18:32:36.958Z,100.00
2023-01-15T18:35:06.341Z,100.00
2023-01-15T18:37:35.307Z,100.00
2023-01-15T18:40:04.376Z,100.00
2023-01-15T18:42:50.198Z,100.00
2023-01-15T18:45:37.567Z,100.00
2023-01-15T18:48:06.310Z,100.00
2023-01-15T18:50:34.793Z,100.00
2023-01-15T18:53:03.299Z,100.00
2023-01-15T18:55:31.986Z,100.00
2023-01-15T18:58:00.567Z,100.00
2023-01-15T19:00:30.507Z,100.00
2023-01-15T19:02:59.159Z,100.00
2023-01-15T19:05:27.660Z,100.00
2023-01-15T19:07:56.177Z,100.00
2023-01-15T19:10:24.757Z,100.00
2023-01-15T19:12:53.344Z,100.00
2023-01-15T19:15:39.093Z,100.00
2023-01-15T19:18:29.807Z,100.00
2023-01-15T19:20:58.399Z,100.00
2023-01-15T19:23:26.820Z,100.00
2023-01-15T19:25:55.277Z,100.00
2023-01-15T19:28:23.864Z,100.00
2023-01-15T19:31:06.189Z,100.00
2023-01-15T19:33:36.906Z,100.00
2023-01-15T19:36:05.975Z,100.00
2023-01-15T19:38:36.039Z,100.00
2023-01-15T19:41:28.066Z,100.00
2023-01-15T19:44:14.066Z,100.00
2023-01-15T19:47:00.045Z,100.00
2023-01-15T19:49:53.303Z,100.00
2023-01-15T19:52:38.076Z,100.00
2023-01-15T19:55:10.828Z,100.00
2023-01-15T19:57:39.595Z,100.00
2023-01-15T20:00:10.265Z,100.00
2023-01-15T20:02:39.335Z,100.00
2023-01-15T20:05:10.988Z,100.00
2023-01-15T20:07:39.670Z,100.00
2023-01-15T20:10:11.099Z,100.00
2023-01-15T20:12:56.589Z,100.00
2023-01-15T20:15:25.401Z,100.00
2023-01-15T20:17:53.913Z,100.00
2023-01-15T20:20:23.804Z,100.00
2023-01-15T20:22:52.704Z,100.00
2023-01-15T20:25:21.320Z,100.00
2023-01-15T20:27:49.863Z,100.00
2023-01-15T20:30:23.007Z,100.00
2023-01-15T20:32:53.238Z,100.00
2023-01-15T20:35:24.999Z,100.00
2023-01-15T20:37:53.883Z,100.00
2023-01-15T20:40:23.805Z,100.00
2023-01-15T20:43:09.874Z,100.00
2023-01-15T20:45:38.887Z,100.00
2023-01-15T20:48:25.351Z,100.00
2023-01-15T20:51:03.969Z,100.00
2023-01-15T20:53:34.813Z,100.00
2023-01-15T20:56:04.538Z,100.00
2023-01-15T20:58:33.191Z,100.00
2023-01-15T21:01:04.639Z,100.00
2023-01-15T21:03:33.303Z,100.00
2023-01-15T21:06:04.930Z,100.00
2023-01-15T21:08:34.009Z,100.00
2023-01-15T21:11:02.491Z,100.00
2023-01-15T21:13:31.362Z,100.00
2023-01-15T21:16:01.923Z,100.00
2023-01-15T21:18:31.556Z,100.00
2023-01-15T21:21:01.939Z,100.00
2023-01-15T21:23:34.748Z,100.00
2023-01-15T21:26:03.332Z,100.00
2023-01-15T21:28:32.461Z,100.00
2023-01-15T21:31:04.310Z,100.00
2023-01-15T21:33:32.820Z,100.00
2023-01-15T21:36:06.085Z,100.00
2023-01-15T21:38:36.265Z,100.00
2023-01-15T21:41:14.980Z,100.00
2023-01-15T21:44:01.589Z,100.00
2023-01-15T21:46:30.394Z,100.00
2023-01-15T21:49:00.511Z,100.00
2023-01-15T21:51:30.785Z,100.00
2023-01-15T21:54:00.836Z,100.00
2023-01-15T21:56:29.608Z,100.00
2023-01-15T21:58:58.499Z,100.00
2023-01-15T22:01:27.083Z,100.00
2023-01-15T22:03:55.678Z,100.00
2023-01-15T22:06:24.276Z,100.00
2023-01-15T22:08:55.518Z,100.00
2023-01-15T22:11:25.847Z,100.00
2023-01-15T22:13:54.228Z,100.00
2023-01-15T22:16:22.754Z,100.00
2023-01-15T22:18:51.240Z,100.00
2023-01-15T22:21:19.724Z,100.00
2023-01-15T22:23:49.290Z,100.00
2023-01-15T22:26:19.380Z,100.00
2023-01-15T22:28:49.940Z,100.00
2023-01-15T22:31:18.451Z,100.00
2023-01-15T22:33:48.071Z,100.00
2023-01-15T22:36:17.375Z,100.00
2023-01-15T22:38:47.193Z,100.00
2023-01-15T22:41:38.338Z,100.00
2023-01-15T22:44:09.261Z,100.00
2023-01-15T22:46:38.701Z,100.00
2023-01-15T22:49:07.207Z,100.00
2023-01-15T22:51:35.757Z,100.00
2023-01-15T22:54:04.958Z,100.00
2023-01-15T22:56:34.008Z,100.00
2023-01-15T22:59:02.541Z,100.00
2023-01-15T23:01:32.614Z,100.00
2023-01-15T23:04:01.676Z,100.00
2023-01-15T23:06:30.310Z,100.00
2023-01-15T23:08:59.214Z,100.00
2023-01-15T23:11:28.270Z,100.00
2023-01-15T23:13:56.777Z,100.00
2023-01-15T23:16:25.453Z,100.00
2023-01-15T23:18:56.060Z,100.00
2023-01-15T23:21:27.777Z,100.00
2023-01-15T23:23:57.192Z,100.00
2023-01-15T23:26:26.504Z,100.00
2023-01-15T23:28:54.900Z,100.00
2023-01-15T23:31:23.960Z,100.00
2023-01-15T23:33:52.670Z,100.00
2023-01-15T23:36:22.805Z,100.00
2023-01-15T23:38:51.313Z,100.00
2023-01-15T23:41:41.186Z,100.00
2023-01-15T23:44:32.399Z,100.00
2023-01-15T23:47:01.366Z,100.00
2023-01-15T23:49:29.903Z,100.00
2023-01-15T23:51:59.903Z,100.00
2023-01-15T23:54:30.236Z,100.00
2023-01-15T23:56:59.792Z,100.00
2023-01-15T23:59:28.290Z,100.00
